Snow Shoe, Pennsylvania
Current Conditions -  °F | °C
As of 9:53 AM on Thursday 18 Dec 2014 (Local Time) from KUNV Reporting Station
Overcast Overcast  
Wind Chill: 20°   Ceiling: 2400
Heat Index: 30°   Visibility: 10mi
Dew Point: 23°   Wind: 13mph
Humidity: 75%   Direction: 280°W
Pressure: 30.09"   Gusts: NA
Location:  41.03°N, 77.95°W
Report Text: KUNV 181453Z 28011KT 10SM OVC024 M01/M05 A3009
Loading
Personal Weather Stations






























Interactive Weather Map New forecast layout! Learn more

10-Day Weather Forecast

Advertisements
Track Severe Weather on mobile